logo
Rechercher aéroport 
image banner adimage banner adimage banner ad
image banner ad

EGSE22 - Colemore Common

Situé à Faringdon, United Kingdom

ICAO - , IATA -

Données fournies par Airmate  

Information générale

Coordonnées: N51°3'44" W1°0'35"
Élévation : 610 feet MSL.
 
Voir autres Aéroports à England

Données opérationnelles

Special qualification required
Heure actuelle UTC:
Heure actuelle locale:
Météo à : EGVO - Odiham ( 20 km )
METAR: EGVO 231720Z AUTO 21007KT 9999 // SCT081/// SCT095/// 04/03 Q0987
TAF: TAF EGVO 231355Z 2315/2403 23010KT 9999 FEW020 TEMPO 2315/2318 7000 SHRA SCT020 PROB30 TEMPO 2315/2317 3000 +SHRA BKN014CB PROB30 TEMPO 2318/2322 SCT018 PROB30 2400/2403 7000 BR
Voir NOTAMs / SUP AIP / TFR affectant cet aéroport [VIEW]
Fréquences de communication: [VIEW]

Pistes:

Identifiant RWYQFULongueur (ft)Largeur (ft)SurfaceLDA (ft)
02134559GRASS
20134559GRASS

Coordonnées de l'aéroport

Adresse: Faringdon United Kingdom

Vue satellite de EGSE22